createdAt,value
2018-11-13T00:00:31.405Z,10.65
2018-11-13T00:03:01.478Z,10.68
2018-11-13T00:05:30.714Z,10.80
2018-11-13T00:07:59.826Z,10.78
2018-11-13T00:10:28.920Z,10.83
2018-11-13T00:12:58.034Z,10.82
2018-11-13T00:15:27.254Z,10.97
2018-11-13T00:17:56.577Z,10.91
2018-11-13T00:20:25.898Z,10.85
2018-11-13T00:22:54.932Z,10.90
2018-11-13T00:25:24.031Z,10.92
2018-11-13T00:27:53.161Z,10.96
2018-11-13T00:30:24.209Z,11.05
2018-11-13T00:32:53.541Z,11.05
2018-11-13T00:35:23.238Z,11.15
2018-11-13T00:37:52.533Z,11.11
2018-11-13T00:40:21.639Z,11.13
2018-11-13T00:42:50.941Z,11.17
2018-11-13T00:45:20.173Z,10.99
2018-11-13T00:47:49.270Z,10.79
2018-11-13T00:50:19.450Z,10.99
2018-11-13T00:52:49.008Z,11.14
2018-11-13T00:55:18.128Z,11.27
2018-11-13T00:57:48.817Z,11.26
2018-11-13T01:00:19.139Z,11.23
2018-11-13T01:02:48.205Z,11.16
2018-11-13T01:05:18.474Z,11.13
2018-11-13T01:07:48.463Z,11.05
2018-11-13T01:10:18.342Z,10.98
2018-11-13T01:12:47.987Z,11.03
2018-11-13T01:15:18.396Z,11.18
2018-11-13T01:17:48.169Z,11.26
2018-11-13T01:20:18.031Z,11.30
2018-11-13T01:22:47.280Z,11.33
2018-11-13T01:25:17.116Z,11.20
2018-11-13T01:27:46.707Z,11.10
2018-11-13T01:30:16.500Z,11.03
2018-11-13T01:32:46.043Z,11.20
2018-11-13T01:35:16.624Z,11.17
2018-11-13T01:37:45.881Z,11.15
2018-11-13T01:40:18.197Z,11.06
2018-11-13T01:42:47.712Z,10.95
2018-11-13T01:45:17.819Z,10.91
2018-11-13T01:47:47.737Z,10.70
2018-11-13T01:50:17.909Z,10.70
2018-11-13T01:52:47.038Z,10.83
2018-11-13T01:55:16.503Z,10.94
2018-11-13T01:57:45.678Z,10.98
2018-11-13T02:00:21.094Z,11.02
2018-11-13T02:02:51.718Z,10.79
2018-11-13T02:05:22.230Z,10.77
2018-11-13T02:07:51.826Z,10.88
2018-11-13T02:10:21.281Z,11.00
2018-11-13T02:12:50.977Z,11.07
2018-11-13T02:15:20.698Z,11.06
2018-11-13T02:17:49.551Z,11.03
2018-11-13T02:20:21.979Z,10.95
2018-11-13T02:22:51.410Z,10.93
2018-11-13T02:25:21.140Z,10.95
2018-11-13T02:27:50.649Z,11.03
2018-11-13T02:30:22.138Z,10.92
2018-11-13T02:32:51.532Z,10.96
2018-11-13T02:35:20.821Z,11.11
2018-11-13T02:37:49.983Z,11.04
2018-11-13T02:40:19.174Z,11.08
2018-11-13T02:42:48.346Z,11.07
2018-11-13T02:45:19.594Z,11.14
2018-11-13T02:47:48.778Z,10.91
2018-11-13T02:50:19.150Z,10.57
2018-11-13T02:52:48.338Z,10.39
2018-11-13T02:55:17.587Z,10.47
2018-11-13T02:57:47.372Z,10.50
2018-11-13T03:00:18.492Z,10.48
2018-11-13T03:02:47.689Z,10.71
2018-11-13T03:05:18.350Z,10.64
2018-11-13T03:07:47.989Z,10.64
2018-11-13T03:10:18.026Z,10.74
2018-11-13T03:12:47.253Z,11.08
2018-11-13T03:15:17.492Z,11.23
2018-11-13T03:17:46.756Z,11.28
2018-11-13T03:20:18.258Z,11.35
2018-11-13T03:22:48.256Z,11.43
2018-11-13T03:25:18.642Z,11.37
2018-11-13T03:27:47.873Z,11.37
2018-11-13T03:30:23.929Z,11.39
2018-11-13T03:32:53.560Z,11.32
2018-11-13T03:35:22.782Z,11.31
2018-11-13T03:37:51.918Z,11.28
2018-11-13T03:40:21.153Z,11.27
2018-11-13T03:42:50.810Z,11.31
2018-11-13T03:45:20.249Z,11.30
2018-11-13T03:47:49.448Z,11.31
2018-11-13T03:50:19.929Z,11.34
2018-11-13T03:52:49.177Z,11.30
2018-11-13T03:55:19.306Z,11.28
2018-11-13T03:57:49.149Z,11.25
2018-11-13T04:00:20.778Z,11.22
2018-11-13T04:02:50.376Z,11.19
2018-11-13T04:05:20.613Z,11.19
2018-11-13T04:07:51.059Z,11.14
2018-11-13T04:10:20.998Z,11.11
2018-11-13T04:12:50.177Z,11.03
2018-11-13T04:15:20.887Z,10.93
2018-11-13T04:17:50.142Z,10.86
2018-11-13T04:20:21.778Z,10.79
2018-11-13T04:22:50.922Z,10.79
2018-11-13T04:25:20.202Z,10.76
2018-11-13T04:27:49.613Z,10.74
2018-11-13T04:30:19.210Z,10.74
2018-11-13T04:32:48.381Z,10.72
2018-11-13T04:35:18.407Z,10.72
2018-11-13T04:37:47.618Z,10.74
2018-11-13T04:40:18.021Z,10.74
2018-11-13T04:42:48.426Z,10.69
2018-11-13T04:45:19.334Z,10.67
2018-11-13T04:47:49.084Z,10.67
2018-11-13T04:50:19.298Z,10.79
2018-11-13T04:52:48.489Z,10.72
2018-11-13T04:55:18.289Z,10.71
2018-11-13T04:57:48.430Z,10.73
2018-11-13T05:00:18.998Z,10.69
2018-11-13T05:02:48.294Z,10.68
2018-11-13T05:05:18.171Z,10.81
2018-11-13T05:07:49.726Z,10.76
2018-11-13T05:10:19.004Z,10.65
2018-11-13T05:12:48.726Z,10.74
2018-11-13T05:15:18.192Z,10.72
2018-11-13T05:17:47.961Z,10.63
2018-11-13T05:20:17.990Z,10.73
2018-11-13T05:22:47.258Z,10.82
2018-11-13T05:25:17.726Z,10.73
2018-11-13T05:27:46.882Z,10.76
2018-11-13T05:30:22.767Z,10.77
2018-11-13T05:32:51.925Z,10.79
2018-11-13T05:35:21.905Z,10.87
2018-11-13T05:37:52.203Z,10.98
2018-11-13T05:40:22.702Z,11.01
2018-11-13T05:42:51.915Z,11.02
2018-11-13T05:45:22.518Z,11.04
2018-11-13T05:47:52.229Z,11.01
2018-11-13T05:50:21.514Z,11.05
2018-11-13T05:52:51.942Z,11.02
2018-11-13T05:55:21.494Z,10.91
2018-11-13T05:57:51.063Z,10.92
2018-11-13T06:00:22.894Z,10.96
2018-11-13T06:02:52.294Z,11.01
2018-11-13T06:05:21.567Z,10.90
2018-11-13T06:07:50.706Z,10.84
2018-11-13T06:10:19.970Z,10.81
2018-11-13T06:12:49.118Z,10.91
2018-11-13T06:15:18.327Z,10.92
2018-11-13T06:17:47.509Z,10.83
2018-11-13T06:20:17.043Z,10.86
2018-11-13T06:22:46.322Z,10.73
2018-11-13T06:25:16.551Z,10.67
2018-11-13T06:27:46.807Z,10.61
2018-11-13T06:30:24.062Z,10.60
2018-11-13T06:32:53.437Z,10.74
2018-11-13T06:35:22.604Z,10.59
2018-11-13T06:37:51.785Z,10.66
2018-11-13T06:40:21.002Z,10.53
2018-11-13T06:42:50.675Z,10.42
2018-11-13T06:45:21.304Z,10.44
2018-11-13T06:47:51.072Z,10.43
2018-11-13T06:50:20.214Z,10.46
2018-11-13T06:52:50.240Z,10.36
2018-11-13T06:55:26.255Z,10.29
2018-11-13T06:57:55.455Z,10.25
2018-11-13T07:00:25.194Z,10.40
2018-11-13T07:02:54.578Z,10.49
2018-11-13T07:05:24.908Z,10.51
2018-11-13T07:07:54.103Z,10.60
2018-11-13T07:10:25.218Z,10.59
2018-11-13T07:13:01.137Z,10.56
2018-11-13T07:15:31.612Z,10.57
2018-11-13T07:18:02.531Z,10.62
2018-11-13T07:20:33.027Z,10.76
2018-11-13T07:23:02.618Z,10.71
2018-11-13T07:25:32.158Z,10.76
2018-11-13T07:28:01.642Z,10.70
2018-11-13T07:30:31.659Z,10.77
2018-11-13T07:33:01.466Z,10.85
2018-11-13T07:35:30.736Z,10.79
2018-11-13T07:38:00.813Z,10.82
2018-11-13T07:40:30.315Z,10.73
2018-11-13T07:42:59.952Z,10.69
2018-11-13T07:45:29.097Z,10.70
2018-11-13T07:47:58.596Z,10.66
2018-11-13T07:50:27.707Z,10.63
2018-11-13T07:52:59.726Z,10.62
2018-11-13T07:55:28.922Z,10.68
2018-11-13T07:57:58.251Z,10.77
2018-11-13T08:00:27.553Z,10.81
2018-11-13T08:03:01.344Z,10.88
2018-11-13T08:05:30.698Z,10.91
2018-11-13T08:08:00.253Z,11.00
2018-11-13T08:10:29.495Z,10.98
2018-11-13T08:12:58.339Z,11.01
2018-11-13T08:15:28.864Z,10.88
2018-11-13T08:17:58.051Z,10.96
2018-11-13T08:20:27.231Z,10.91
2018-11-13T08:22:57.577Z,10.93
2018-11-13T08:25:27.217Z,10.98
2018-11-13T08:27:57.155Z,10.95
2018-11-13T08:30:27.047Z,11.04
2018-11-13T08:32:56.978Z,11.12
2018-11-13T08:35:26.939Z,11.21
2018-11-13T08:37:56.233Z,11.31
2018-11-13T08:40:26.225Z,11.17
2018-11-13T08:42:55.475Z,11.23
2018-11-13T08:45:24.618Z,11.27
2018-11-13T08:47:53.797Z,11.22
2018-11-13T08:50:23.464Z,11.25
2018-11-13T08:52:53.434Z,11.36
2018-11-13T08:55:22.303Z,11.36
2018-11-13T08:57:54.539Z,11.25
2018-11-13T09:00:24.154Z,11.21
2018-11-13T09:02:57.043Z,11.11
2018-11-13T09:05:27.124Z,11.04
2018-11-13T09:07:56.616Z,11.01
2018-11-13T09:10:28.923Z,10.91
2018-11-13T09:12:58.746Z,10.99
2018-11-13T09:15:30.619Z,10.92
2018-11-13T09:18:00.059Z,10.96
2018-11-13T09:20:29.534Z,11.00
2018-11-13T09:23:01.684Z,11.06
2018-11-13T09:25:31.133Z,11.03
2018-11-13T09:28:00.310Z,11.12
2018-11-13T09:30:29.275Z,11.13
2018-11-13T09:32:58.229Z,11.29
2018-11-13T09:35:29.720Z,11.26
2018-11-13T09:37:58.859Z,11.28
2018-11-13T09:40:28.473Z,11.35
2018-11-13T09:42:58.066Z,11.10
2018-11-13T09:45:27.782Z,11.07
2018-11-13T09:47:57.841Z,11.17
2018-11-13T09:50:28.357Z,11.09
2018-11-13T09:52:57.506Z,11.10
2018-11-13T09:55:27.435Z,11.06
2018-11-13T09:57:56.597Z,11.07
2018-11-13T10:00:26.988Z,10.92
2018-11-13T10:02:59.190Z,10.87
2018-11-13T10:05:28.343Z,10.82
2018-11-13T10:07:58.523Z,10.81
2018-11-13T10:10:28.442Z,10.83
2018-11-13T10:12:57.614Z,10.95
2018-11-13T10:15:28.315Z,10.93
2018-11-13T10:17:58.360Z,10.98
2018-11-13T10:20:28.202Z,11.15
2018-11-13T10:23:00.171Z,11.10
2018-11-13T10:25:29.718Z,11.21
2018-11-13T10:27:59.257Z,11.22
2018-11-13T10:30:28.429Z,11.23
2018-11-13T10:32:58.519Z,11.20
2018-11-13T10:35:27.674Z,11.24
2018-11-13T10:37:56.817Z,11.26
2018-11-13T10:40:27.422Z,11.29
2018-11-13T10:42:56.581Z,11.33
2018-11-13T10:45:29.644Z,11.22
2018-11-13T10:47:58.845Z,11.17
2018-11-13T10:50:28.068Z,11.17
2018-11-13T10:52:58.018Z,11.12
2018-11-13T10:55:27.194Z,11.19
2018-11-13T10:57:56.951Z,11.16
2018-11-13T11:00:34.907Z,11.16
2018-11-13T11:03:18.222Z,11.14
2018-11-13T11:05:47.378Z,11.17
2018-11-13T11:08:17.363Z,11.27
2018-11-13T11:10:46.479Z,11.40
2018-11-13T11:13:15.873Z,11.73
2018-11-13T11:15:45.237Z,11.87
2018-11-13T11:18:16.478Z,11.84
2018-11-13T11:20:45.678Z,12.02
2018-11-13T11:23:14.845Z,12.02
2018-11-13T11:25:44.020Z,12.13
2018-11-13T11:28:13.941Z,11.98
2018-11-13T11:30:43.677Z,12.05
2018-11-13T11:33:13.079Z,12.11
2018-11-13T11:35:44.153Z,11.95
2018-11-13T11:38:13.431Z,11.81
2018-11-13T11:40:44.187Z,11.71
2018-11-13T11:43:13.333Z,11.96
2018-11-13T11:45:42.475Z,11.88
2018-11-13T11:48:11.642Z,11.92
2018-11-13T11:50:41.427Z,11.79
2018-11-13T11:53:10.719Z,11.95
2018-11-13T11:55:40.597Z,12.04
2018-11-13T11:58:09.369Z,11.97
2018-11-13T12:00:38.572Z,11.91
2018-11-13T12:03:07.723Z,12.03
2018-11-13T12:05:36.861Z,11.82
2018-11-13T12:08:06.031Z,11.71
2018-11-13T12:10:35.257Z,11.19
2018-11-13T12:13:04.475Z,11.46
2018-11-13T12:15:33.628Z,11.51
2018-11-13T12:18:02.862Z,11.59
2018-11-13T12:20:32.061Z,11.64
2018-11-13T12:23:01.258Z,11.65
2018-11-13T12:25:30.445Z,11.90
2018-11-13T12:27:59.578Z,11.91
2018-11-13T12:30:29.261Z,11.98
2018-11-13T12:32:58.385Z,12.15
2018-11-13T12:35:27.588Z,12.32
2018-11-13T12:37:56.767Z,12.35
2018-11-13T12:40:26.254Z,12.46
2018-11-13T12:42:55.793Z,11.94
2018-11-13T12:45:24.931Z,12.10
2018-11-13T12:47:54.063Z,12.52
2018-11-13T12:50:23.741Z,12.96
2018-11-13T12:52:52.922Z,12.79
2018-11-13T12:55:23.533Z,13.01
2018-11-13T12:57:52.680Z,13.10
2018-11-13T13:00:24.161Z,13.11
2018-11-13T13:02:53.358Z,12.91
2018-11-13T13:05:23.106Z,12.83
2018-11-13T13:07:52.302Z,12.70
2018-11-13T13:10:22.161Z,12.64
2018-11-13T13:12:51.321Z,12.58
2018-11-13T13:15:20.995Z,12.81
2018-11-13T13:17:50.134Z,12.91
2018-11-13T13:20:23.856Z,12.84
2018-11-13T13:22:53.542Z,13.08
2018-11-13T13:25:23.688Z,13.49
2018-11-13T13:27:52.963Z,13.41
2018-11-13T13:30:24.985Z,12.89
2018-11-13T13:32:54.159Z,13.34
2018-11-13T13:36:01.487Z,13.88
2018-11-13T13:38:32.228Z,13.48
2018-11-13T13:41:02.283Z,13.64
2018-11-13T13:43:32.011Z,13.72
2018-11-13T13:46:01.315Z,13.28
2018-11-13T13:48:31.018Z,13.33
2018-11-13T13:51:00.154Z,12.89
2018-11-13T13:53:29.367Z,12.53
2018-11-13T13:55:58.603Z,12.46
2018-11-13T13:58:27.803Z,12.43
2018-11-13T14:00:58.034Z,12.26
2018-11-13T14:03:27.110Z,12.19
2018-11-13T14:05:56.313Z,12.19
2018-11-13T14:08:25.641Z,12.08
2018-11-13T14:10:54.818Z,12.28
2018-11-13T14:13:24.062Z,12.34
2018-11-13T14:15:53.197Z,12.52
2018-11-13T14:18:22.412Z,12.69
2018-11-13T14:20:51.617Z,12.39
2018-11-13T14:23:21.071Z,12.37
2018-11-13T14:25:50.198Z,12.17
2018-11-13T14:28:19.359Z,11.88
2018-11-13T14:30:48.774Z,11.60
2018-11-13T14:33:18.035Z,11.39
2018-11-13T14:35:47.214Z,11.25
2018-11-13T14:38:16.409Z,11.19
2018-11-13T14:40:46.953Z,10.96
2018-11-13T14:43:16.419Z,10.89
2018-11-13T14:45:45.958Z,10.78
2018-11-13T14:48:15.284Z,10.68
2018-11-13T14:50:44.582Z,10.68
2018-11-13T14:53:14.534Z,10.75
2018-11-13T14:55:45.052Z,10.81
2018-11-13T14:58:15.551Z,10.81
2018-11-13T15:00:44.806Z,10.76
2018-11-13T15:03:16.375Z,10.66
2018-11-13T15:05:45.535Z,10.59
2018-11-13T15:08:14.671Z,10.40
2018-11-13T15:10:50.201Z,10.29
2018-11-13T15:13:19.988Z,10.16
2018-11-13T15:15:49.179Z,9.98
2018-11-13T15:18:20.868Z,9.77
2018-11-13T15:20:51.359Z,9.67
2018-11-13T15:23:20.729Z,9.71
2018-11-13T15:25:50.523Z,9.58
2018-11-13T15:28:20.267Z,9.52
2018-11-13T15:30:51.213Z,9.50
2018-11-13T15:33:24.950Z,9.42
2018-11-13T15:35:54.790Z,9.17
2018-11-13T15:38:23.963Z,9.07
2018-11-13T15:40:53.304Z,9.21
2018-11-13T15:43:22.971Z,9.27
2018-11-13T15:45:52.141Z,9.39
2018-11-13T15:48:21.470Z,9.32
2018-11-13T15:50:50.623Z,9.26
2018-11-13T15:53:20.415Z,9.00
2018-11-13T15:55:50.166Z,8.71
2018-11-13T15:58:19.461Z,8.53
2018-11-13T16:00:48.898Z,8.35
2018-11-13T16:03:24.407Z,8.22
2018-11-13T16:05:55.643Z,8.05
2018-11-13T16:08:24.783Z,8.00
2018-11-13T16:10:53.954Z,7.92
2018-11-13T16:13:23.899Z,7.87
2018-11-13T16:15:53.035Z,7.84
2018-11-13T16:18:24.394Z,7.96
2018-11-13T16:20:53.534Z,8.02
2018-11-13T16:23:22.300Z,8.03
2018-11-13T16:25:52.454Z,7.99
2018-11-13T16:28:21.742Z,7.81
2018-11-13T16:30:51.101Z,7.71
2018-11-13T16:33:20.293Z,7.55
2018-11-13T16:36:03.453Z,7.51
2018-11-13T16:38:33.098Z,7.42
2018-11-13T16:41:02.241Z,7.29
2018-11-13T16:43:31.386Z,7.16
2018-11-13T16:46:00.615Z,7.05
2018-11-13T16:48:30.011Z,7.00
2018-11-13T16:50:59.566Z,7.05
2018-11-13T16:53:28.918Z,6.99
2018-11-13T16:56:04.712Z,7.09
2018-11-13T16:58:34.706Z,7.00
2018-11-13T17:01:05.057Z,6.94
2018-11-13T17:03:34.494Z,6.88
2018-11-13T17:06:03.734Z,6.83
2018-11-13T17:08:32.813Z,6.90
2018-11-13T17:11:02.043Z,6.90
2018-11-13T17:13:31.528Z,6.75
2018-11-13T17:16:00.785Z,6.77
2018-11-13T17:18:29.914Z,6.72
2018-11-13T17:20:59.103Z,6.77
2018-11-13T17:23:29.787Z,6.75
2018-11-13T17:25:58.942Z,6.94
2018-11-13T17:28:28.423Z,7.03
2018-11-13T17:30:57.707Z,7.17
2018-11-13T17:33:26.855Z,7.31
2018-11-13T17:35:56.234Z,7.11
2018-11-13T17:38:25.573Z,7.06
2018-11-13T17:40:54.910Z,7.02
2018-11-13T17:43:24.887Z,7.06
2018-11-13T17:45:56.455Z,7.11
2018-11-13T17:48:25.610Z,7.14
2018-11-13T17:50:54.782Z,7.06
2018-11-13T17:53:26.129Z,7.08
2018-11-13T17:55:55.293Z,7.16
2018-11-13T17:58:24.454Z,7.13
2018-11-13T18:00:54.017Z,7.07
2018-11-13T18:03:23.188Z,7.03
2018-11-13T18:05:53.398Z,7.12
2018-11-13T18:08:23.423Z,6.89
2018-11-13T18:10:52.677Z,6.77
2018-11-13T18:13:22.059Z,6.57
2018-11-13T18:15:53.638Z,6.45
2018-11-13T18:18:22.862Z,6.71
2018-11-13T18:20:53.627Z,6.86
2018-11-13T18:23:22.800Z,6.76
2018-11-13T18:25:53.119Z,6.52
2018-11-13T18:28:22.659Z,6.41
2018-11-13T18:30:51.785Z,6.24
2018-11-13T18:33:21.054Z,6.04
2018-11-13T18:35:50.262Z,6.03
2018-11-13T18:38:20.484Z,6.11
2018-11-13T18:40:49.643Z,6.04
2018-11-13T18:43:18.822Z,6.03
2018-11-13T18:45:48.746Z,5.97
2018-11-13T18:48:18.034Z,6.26
2018-11-13T18:50:47.478Z,6.42
2018-11-13T18:53:16.685Z,6.20
2018-11-13T18:55:48.022Z,5.95
2018-11-13T18:58:17.420Z,5.85
2018-11-13T19:00:46.566Z,5.86
2018-11-13T19:03:16.120Z,5.72
2018-11-13T19:05:45.587Z,5.46
2018-11-13T19:08:14.995Z,5.43
2018-11-13T19:10:46.156Z,5.62
2018-11-13T19:13:23.402Z,5.55
2018-11-13T19:15:56.273Z,5.37
2018-11-13T19:18:25.508Z,5.26
2018-11-13T19:20:54.697Z,5.31
2018-11-13T19:23:24.010Z,5.29
2018-11-13T19:25:53.172Z,5.33
2018-11-13T19:28:22.470Z,5.27
2018-11-13T19:30:52.122Z,5.29
2018-11-13T19:33:21.929Z,5.26
2018-11-13T19:35:51.816Z,5.37
2018-11-13T19:38:21.083Z,5.52
2018-11-13T19:40:51.283Z,5.46
2018-11-13T19:43:20.522Z,5.38
2018-11-13T19:45:50.039Z,5.44
2018-11-13T19:48:19.648Z,5.43
2018-11-13T19:50:49.096Z,5.37
2018-11-13T19:53:18.411Z,5.07
2018-11-13T19:55:48.127Z,5.09
2018-11-13T19:58:17.498Z,5.06
2018-11-13T20:00:52.781Z,5.10
2018-11-13T20:03:22.327Z,5.13
2018-11-13T20:05:51.634Z,5.19
2018-11-13T20:08:21.283Z,5.26
2018-11-13T20:10:50.820Z,5.46
2018-11-13T20:13:20.389Z,5.32
2018-11-13T20:15:49.858Z,5.02
2018-11-13T20:18:19.144Z,4.79
2018-11-13T20:20:49.680Z,4.79
2018-11-13T20:23:20.519Z,4.68
2018-11-13T20:25:50.641Z,4.63
2018-11-13T20:28:20.070Z,4.69
2018-11-13T20:30:50.012Z,4.67
2018-11-13T20:33:19.509Z,4.70
2018-11-13T20:35:49.059Z,4.66
2018-11-13T20:38:18.418Z,4.88
2018-11-13T20:40:48.075Z,5.03
2018-11-13T20:43:18.232Z,5.03
2018-11-13T20:45:47.503Z,5.13
2018-11-13T20:48:16.853Z,5.17
2018-11-13T20:50:46.121Z,5.19
2018-11-13T20:53:15.407Z,5.16
2018-11-13T20:55:51.354Z,5.11
2018-11-13T20:58:20.725Z,5.04
2018-11-13T21:00:50.030Z,4.88
2018-11-13T21:03:19.265Z,4.80
2018-11-13T21:05:48.905Z,4.81
2018-11-13T21:08:18.175Z,4.77
2018-11-13T21:10:47.573Z,4.83
2018-11-13T21:13:17.426Z,4.78
2018-11-13T21:15:46.937Z,4.76
2018-11-13T21:18:16.186Z,4.59
2018-11-13T21:20:45.441Z,4.45
2018-11-13T21:23:14.763Z,4.36
2018-11-13T21:25:43.962Z,4.31
2018-11-13T21:28:20.437Z,4.39
2018-11-13T21:30:50.298Z,4.32
2018-11-13T21:33:19.587Z,4.08
2018-11-13T21:35:48.916Z,3.94
2018-11-13T21:38:18.103Z,3.96
2018-11-13T21:40:47.448Z,4.01
2018-11-13T21:43:16.758Z,4.00
2018-11-13T21:45:47.691Z,4.01
2018-11-13T21:48:16.935Z,3.99
2018-11-13T21:50:49.182Z,4.00
2018-11-13T21:53:19.076Z,3.98
2018-11-13T21:55:48.489Z,3.97
2018-11-13T21:58:18.581Z,3.93
2018-11-13T22:00:48.475Z,3.94
2018-11-13T22:03:18.194Z,3.92
2018-11-13T22:05:47.700Z,3.89
2018-11-13T22:08:17.182Z,3.78
2018-11-13T22:10:46.426Z,3.58
2018-11-13T22:13:17.048Z,3.67
2018-11-13T22:15:46.393Z,3.77
2018-11-13T22:18:17.391Z,3.80
2018-11-13T22:20:46.674Z,3.79
2018-11-13T22:23:16.054Z,3.80
2018-11-13T22:25:45.344Z,3.59
2018-11-13T22:28:14.687Z,3.62
2018-11-13T22:30:43.940Z,3.65
2018-11-13T22:33:13.385Z,3.67
2018-11-13T22:35:42.979Z,3.65
2018-11-13T22:38:12.014Z,3.51
2018-11-13T22:40:41.209Z,3.34
2018-11-13T22:43:10.588Z,3.38
2018-11-13T22:45:42.246Z,3.49
2018-11-13T22:48:11.606Z,3.54
2018-11-13T22:50:41.739Z,3.58
2018-11-13T22:53:11.083Z,3.59
2018-11-13T22:55:40.350Z,3.54
2018-11-13T22:58:10.122Z,3.33
2018-11-13T23:00:44.017Z,3.20
2018-11-13T23:03:15.451Z,3.17
2018-11-13T23:05:45.413Z,3.11
2018-11-13T23:08:16.174Z,3.04
2018-11-13T23:10:45.625Z,3.06
2018-11-13T23:13:14.989Z,3.23
2018-11-13T23:15:44.915Z,3.14
2018-11-13T23:18:14.194Z,3.12
2018-11-13T23:20:45.156Z,2.88
2018-11-13T23:23:14.986Z,2.75
2018-11-13T23:25:44.356Z,2.77
2018-11-13T23:28:13.560Z,2.78
2018-11-13T23:30:42.857Z,2.87
2018-11-13T23:33:11.956Z,2.83
2018-11-13T23:35:41.239Z,2.77
2018-11-13T23:38:11.307Z,2.80
2018-11-13T23:40:40.497Z,2.89
2018-11-13T23:43:09.719Z,2.91
2018-11-13T23:45:39.810Z,2.93
2018-11-13T23:48:09.078Z,2.73
2018-11-13T23:50:38.335Z,2.62
2018-11-13T23:53:07.799Z,2.75
2018-11-13T23:55:37.120Z,2.77
2018-11-13T23:58:06.299Z,2.69
